Time;durP1;ratioP1;P1;durP2;ratioP2;P2;SDS_P1;SDS_P2;PMS_P1;PMS_P2;Temp;Humidity;BMP_temperature;BMP_pressure;BME280_temperature;BME280_humidity;BME280_pressure;Samples;Min_cycle;Max_cycle;Signal;HPM_P1;HPM_P2
2023/04/28 05:42:25;;;;;;;18.90;11.95;;;;;;;;;;10125404;23;20128;-93
2023/04/28 05:46:30;;;;;;;18.30;11.98;;;;;;;;;;10091767;23;20018;-92
2023/04/28 05:51:13;;;;;;;19.70;13.10;;;;;;;;;;10107768;23;20321;-88
2023/04/28 06:11:13;;;;;;;13.10;7.53;;;;;;;;;;9946700;23;20031;-90
2023/04/28 06:20:32;;;;;;;15.18;8.70;;;;;;;;;;9944652;23;20651;-90
2023/04/28 06:29:52;;;;;;;10.55;6.65;;;;;;;;;;9942039;23;20148;-92
2023/04/28 06:44:44;;;;;;;9.57;5.53;;;;;;;;;;9879855;24;20114;-92
2023/04/28 06:59:47;;;;;;;8.23;4.43;;;;;;;;;;10186564;23;20021;-90
2023/04/28 07:03:50;;;;;;;9.88;4.63;;;;;;;;;;10204651;23;20477;-89
2023/04/28 07:07:53;;;;;;;7.75;3.75;;;;;;;;;;10189432;23;20017;-92
2023/04/28 07:11:57;;;;;;;9.20;4.93;;;;;;;;;;10164566;23;20403;-91
2023/04/28 07:16:01;;;;;;;7.65;4.60;;;;;;;;;;10192277;23;20446;-89
2023/04/28 07:20:05;;;;;;;9.85;4.60;;;;;;;;;;10185175;23;20041;-90
2023/04/28 07:24:09;;;;;;;8.27;4.50;;;;;;;;;;10220165;23;20017;-89
2023/04/28 07:28:13;;;;;;;7.82;4.22;;;;;;;;;;10220520;23;20037;-88
2023/04/28 07:32:17;;;;;;;8.02;5.20;;;;;;;;;;10219851;23;20021;-89
2023/04/28 07:36:20;;;;;;;6.88;4.05;;;;;;;;;;10222797;23;20043;-89
2023/04/28 07:40:23;;;;;;;8.10;4.25;;;;;;;;;;10224511;23;20028;-90
2023/04/28 07:44:26;;;;;;;6.38;3.47;;;;;;;;;;10225726;23;20085;-93
2023/04/28 07:48:33;;;;;;;7.78;3.85;;;;;;;;;;10226024;23;20049;-91
2023/04/28 07:52:37;;;;;;;8.50;3.47;;;;;;;;;;10244335;23;20145;-90
2023/04/28 07:56:42;;;;;;;8.57;3.80;;;;;;;;;;10196086;23;20025;-90
2023/04/28 08:00:45;;;;;;;9.43;4.10;;;;;;;;;;10188881;23;20024;-90
2023/04/28 08:04:52;;;;;;;7.88;4.10;;;;;;;;;;10191914;23;20044;-89
2023/04/28 08:08:55;;;;;;;10.45;4.90;;;;;;;;;;10206304;23;20017;-89
2023/04/28 08:13:03;;;;;;;9.23;6.03;;;;;;;;;;10212785;23;20474;-88
2023/04/28 08:17:09;;;;;;;8.52;5.35;;;;;;;;;;10211167;23;20232;-89
2023/04/28 08:21:15;;;;;;;10.80;4.50;;;;;;;;;;10210341;23;20031;-89
2023/04/28 08:25:21;;;;;;;11.32;4.75;;;;;;;;;;10205083;23;20462;-89
2023/04/28 08:29:24;;;;;;;10.00;5.40;;;;;;;;;;10185891;23;20100;-88
2023/04/28 08:33:27;;;;;;;8.05;5.38;;;;;;;;;;10184409;23;20045;-89
2023/04/28 08:37:32;;;;;;;7.88;4.93;;;;;;;;;;10185120;23;20104;-89
2023/04/28 08:41:39;;;;;;;9.85;4.95;;;;;;;;;;10187541;23;20022;-90
2023/04/28 08:45:44;;;;;;;7.43;4.32;;;;;;;;;;10192884;23;20025;-89
2023/04/28 08:49:48;;;;;;;8.15;4.65;;;;;;;;;;10204588;23;20022;-88
2023/04/28 08:53:55;;;;;;;44.10;22.83;;;;;;;;;;10190416;23;20021;-88
2023/04/28 08:58:00;;;;;;;9.10;5.25;;;;;;;;;;10207562;23;20639;-89
2023/04/28 09:02:04;;;;;;;13.80;9.07;;;;;;;;;;10164686;23;20017;-91
2023/04/28 09:06:07;;;;;;;10.75;5.88;;;;;;;;;;10190349;23;20013;-87
2023/04/28 09:10:20;;;;;;;7.57;5.10;;;;;;;;;;10191471;23;20622;-87
2023/04/28 09:14:24;;;;;;;9.13;5.00;;;;;;;;;;10209792;23;20021;-88
2023/04/28 09:18:27;;;;;;;10.52;5.30;;;;;;;;;;10168125;23;20028;-88
2023/04/28 09:22:32;;;;;;;9.82;5.10;;;;;;;;;;10184110;23;20098;-88
2023/04/28 09:26:50;;;;;;;8.00;4.40;;;;;;;;;;10181842;23;20041;-89
2023/04/28 09:30:54;;;;;;;8.15;4.40;;;;;;;;;;10202296;23;20017;-90
2023/04/28 09:34:57;;;;;;;13.27;4.78;;;;;;;;;;10188502;23;20303;-93
2023/04/28 09:39:00;;;;;;;8.98;5.15;;;;;;;;;;10192445;23;20028;-93
2023/04/28 09:43:05;;;;;;;11.82;6.10;;;;;;;;;;10189669;23;20017;-91
2023/04/28 09:47:21;;;;;;;66.57;38.85;;;;;;;;;;10203205;23;20021;-90
2023/04/28 09:51:25;;;;;;;13.50;6.75;;;;;;;;;;10188903;23;20028;-92
2023/04/28 09:55:30;;;;;;;26.17;16.52;;;;;;;;;;10160880;23;20021;-92
2023/04/28 09:59:36;;;;;;;10.75;5.78;;;;;;;;;;10203978;23;20485;-89
2023/04/28 10:03:40;;;;;;;13.10;5.75;;;;;;;;;;10202699;23;20033;-88
2023/04/28 10:07:43;;;;;;;11.85;6.93;;;;;;;;;;10185352;23;20466;-91
2023/04/28 10:11:48;;;;;;;11.35;6.00;;;;;;;;;;10187560;23;20080;-89
2023/04/28 10:15:56;;;;;;;10.02;5.05;;;;;;;;;;10202866;23;20029;-88
2023/04/28 10:20:05;;;;;;;9.57;5.80;;;;;;;;;;10202758;23;20747;-93
2023/04/28 10:24:14;;;;;;;10.95;4.90;;;;;;;;;;10201820;23;20025;-90
2023/04/28 10:28:18;;;;;;;11.73;7.00;;;;;;;;;;10200215;23;20074;-92
2023/04/28 10:32:27;;;;;;;11.02;5.53;;;;;;;;;;10186063;23;20017;-90
2023/04/28 10:36:54;;;;;;;10.68;5.32;;;;;;;;;;10202755;23;20439;-91
2023/04/28 10:41:01;;;;;;;9.00;4.55;;;;;;;;;;10160659;23;20032;-89
2023/04/28 10:45:06;;;;;;;9.57;4.90;;;;;;;;;;10165795;23;20040;-91
2023/04/28 10:49:14;;;;;;;8.55;4.53;;;;;;;;;;10161086;23;20034;-89
2023/04/28 10:53:17;;;;;;;11.30;5.05;;;;;;;;;;10198621;23;20032;-87
2023/04/28 10:57:21;;;;;;;9.77;4.63;;;;;;;;;;10181072;23;20450;-87
2023/04/28 11:01:25;;;;;;;6.35;2.90;;;;;;;;;;10181643;23;20048;-87
2023/04/28 11:05:33;;;;;;;12.07;4.60;;;;;;;;;;10182048;23;20494;-86
2023/04/28 11:09:49;;;;;;;11.68;4.40;;;;;;;;;;10199867;23;20563;-90
2023/04/28 11:13:53;;;;;;;8.82;4.35;;;;;;;;;;10188480;23;20018;-86
2023/04/28 11:17:59;;;;;;;23.20;11.07;;;;;;;;;;10181590;23;20087;-88
2023/04/28 11:22:10;;;;;;;13.10;5.47;;;;;;;;;;10173353;23;20057;-89
2023/04/28 11:26:13;;;;;;;7.50;4.57;;;;;;;;;;10156105;23;20025;-90
2023/04/28 11:30:22;;;;;;;9.27;4.97;;;;;;;;;;10184413;23;20053;-87
2023/04/28 11:34:25;;;;;;;7.35;4.68;;;;;;;;;;10183340;23;20334;-87
2023/04/28 11:38:30;;;;;;;8.48;4.07;;;;;;;;;;10183594;23;20096;-87
2023/04/28 11:42:33;;;;;;;33.60;12.32;;;;;;;;;;10184229;23;20021;-89
2023/04/28 11:46:36;;;;;;;25.80;9.20;;;;;;;;;;10183889;23;20018;-86
2023/04/28 11:50:39;;;;;;;8.60;5.15;;;;;;;;;;10183489;23;20026;-86
2023/04/28 11:54:43;;;;;;;9.88;5.18;;;;;;;;;;10156179;23;20025;-87
2023/04/28 11:58:49;;;;;;;7.70;4.32;;;;;;;;;;10182574;23;20025;-87
2023/04/28 12:02:52;;;;;;;9.05;4.88;;;;;;;;;;10198751;23;20347;-88
2023/04/28 12:07:06;;;;;;;10.25;5.10;;;;;;;;;;10182876;23;20451;-87
2023/04/28 12:11:16;;;;;;;10.50;5.15;;;;;;;;;;10157979;23;20026;-88
2023/04/28 12:15:20;;;;;;;9.10;5.10;;;;;;;;;;10202158;23;20382;-88
2023/04/28 12:19:23;;;;;;;7.28;4.32;;;;;;;;;;10185891;23;20446;-89
2023/04/28 12:23:31;;;;;;;8.90;4.93;;;;;;;;;;10185749;23;20029;-89
2023/04/28 12:27:37;;;;;;;7.35;4.85;;;;;;;;;;10165562;23;20022;-89
2023/04/28 12:31:51;;;;;;;10.82;5.78;;;;;;;;;;10213156;23;20101;-92
2023/04/28 12:35:55;;;;;;;9.95;5.95;;;;;;;;;;10163585;23;20404;-90
2023/04/28 12:39:59;;;;;;;10.93;5.72;;;;;;;;;;10188565;23;20048;-89
2023/04/28 12:44:06;;;;;;;8.57;4.50;;;;;;;;;;10184812;23;20458;-92
2023/04/28 12:48:13;;;;;;;7.70;4.68;;;;;;;;;;10200154;23;20024;-89
2023/04/28 12:52:16;;;;;;;10.13;4.75;;;;;;;;;;10184837;23;20026;-89
2023/04/28 12:56:20;;;;;;;6.50;4.35;;;;;;;;;;10157858;23;20386;-91
2023/04/28 13:00:27;;;;;;;13.15;6.07;;;;;;;;;;10188650;23;20395;-90
2023/04/28 13:04:30;;;;;;;13.75;6.03;;;;;;;;;;10205038;23;20024;-88
2023/04/28 13:08:34;;;;;;;7.10;4.47;;;;;;;;;;10186445;23;20631;-89
2023/04/28 13:12:36;;;;;;;8.43;4.90;;;;;;;;;;10183371;23;20587;-87
2023/04/28 13:16:41;;;;;;;9.77;4.95;;;;;;;;;;10185055;23;20517;-89
2023/04/28 13:20:44;;;;;;;7.85;4.78;;;;;;;;;;10185337;23;20141;-87
2023/04/28 13:24:47;;;;;;;8.07;4.68;;;;;;;;;;10189103;23;20029;-91
2023/04/28 13:28:53;;;;;;;10.38;5.13;;;;;;;;;;10187355;23;20053;-88
2023/04/28 13:32:58;;;;;;;7.93;4.68;;;;;;;;;;10201916;23;20025;-89
2023/04/28 13:37:04;;;;;;;9.00;5.13;;;;;;;;;;10202581;23;20017;-89
2023/04/28 13:41:07;;;;;;;11.50;5.72;;;;;;;;;;10200240;23;20017;-88
2023/04/28 13:45:11;;;;;;;9.60;5.50;;;;;;;;;;10184794;23;20056;-89
2023/04/28 13:49:16;;;;;;;8.02;5.78;;;;;;;;;;10186584;23;20025;-89
2023/04/28 13:53:22;;;;;;;10.32;5.35;;;;;;;;;;10184295;23;20450;-87
2023/04/28 13:57:39;;;;;;;11.20;5.88;;;;;;;;;;10163128;23;20029;-88
2023/04/28 14:07:00;;;;;;;11.90;5.45;;;;;;;;;;10199556;23;20072;-85
2023/04/28 14:11:06;;;;;;;10.82;5.18;;;;;;;;;;10183039;23;20024;-85
2023/04/28 14:15:10;;;;;;;11.75;6.47;;;;;;;;;;10182432;23;20021;-86
2023/04/28 14:19:16;;;;;;;7.85;4.82;;;;;;;;;;10182717;23;20354;-87
2023/04/28 14:23:29;;;;;;;8.60;4.75;;;;;;;;;;10168307;23;20032;-89
2023/04/28 17:05:26;;;;;;;9.82;4.15;;;;;;;;;;10150104;23;20097;-88
2023/04/28 17:20:29;;;;;;;6.55;4.13;;;;;;;;;;10185976;23;20118;-91
2023/04/28 17:24:32;;;;;;;9.10;4.45;;;;;;;;;;10199176;23;20025;-88
2023/04/28 19:36:12;;;;;;;16.35;7.60;;;;;;;;;;10107630;23;20017;-90
2023/04/28 20:01:51;;;;;;;30.15;11.05;;;;;;;;;;10180412;23;20052;-88
2023/04/28 20:05:55;;;;;;;17.67;8.02;;;;;;;;;;10167711;23;20021;-88
2023/04/28 20:10:02;;;;;;;17.85;8.50;;;;;;;;;;10177654;23;20066;-88
2023/04/28 20:14:09;;;;;;;125.35;40.72;;;;;;;;;;10193883;23;20009;-88
2023/04/28 20:18:14;;;;;;;18.67;9.40;;;;;;;;;;10190598;23;20070;-89
2023/04/28 21:45:28;;;;;;;21.67;10.63;;;;;;;;;;10086826;23;20042;-87
2023/04/28 21:49:31;;;;;;;21.88;11.27;;;;;;;;;;10169362;23;20487;-90
